Airfield :
LOGIN :

Register | Disclaimer

   EN    FR    IT 

 










Legend :    VFR   Marginal VFR   IFR   Intensive IFR   Very Intensive IFR
Visi :
Ceiling :
>= 8 km
>= 3000ft
5 to 8 km
1000 to 3000 ft
1500m to 5 km
500 to 1000 ft
800 to 1500m
200 to 500 ft
< 800m
< 200 ft
Symbols :   Thunderstorms  Fog  Heavy snow  Heavy precipitations  Wind > 20 kt
SIGMETs :     Misc.  Thunderstorms  Icing  Turbulence  Mountain Waves  Volcanic Ashes






- Airport Elevation : 794 ft


LKCV - Čáslav Air Base

CURRENT METAR :
  • 021430Z 30019KT 9999 BKN030 06/00 Q1017 NOSIG RMK BLU BLU

EXPIRED METARs :
  • 021400Z 29018KT 9999 SCT031 05/00 Q1016 NOSIG
  • 021330Z 30020KT 9999 -SHRA BKN030 BKN046 05/01 Q1016 NOSIG RMK BLU BLU
  • 021300Z 30021KT 9999 BKN030 BKN045 06/00 Q1016 NOSIG RMK BLU BLU
  • 021230Z 30021G31KT 9999 SCT029 BKN037 05/00 Q1015 NOSIG RMK BLU BLU
  • 021200Z 29022KT 9999 -SHRA FEW028 BKN030 05/M00 Q1015 NOSIG RMK BLU BLU
  • 021130Z 29023KT 9999 FEW027 BKN037 05/M00 Q1015 NOSIG RMK BLU BLU

TAF TAF LKCV
Valid from the 02 at 12:00 until the 03 at 12:00 UTC


021100Z 0212/0312 28022G32KT 9999 BKN035
TEMPO 0212/0218 7000 SHRA BKN022
PROB30
TEMPO 0212/0217 28024G34KT 4000 SHRASN BKN016TCU
BECMG 0216/0218 27014KT
BECMG 0302/0304 24006KT 3000 SNRA BKN010 BKN020
BECMG 0306/0308 9999 NSW SCT020 BKN024
TEMPO 0308/0312 26014KT 6000 RA BKN018



MET'MAP, your aeronautical weather chart ! - Copyright ORBIFLY December 2007 - Disclaimer

ORBIFLY MET'MAP TEAM :

Programming & Development : Alexandra Zaïnal
Original concept : Baudouin d'Aumeries
Technical & hardware support : Manuel Goepfert
Assistance : Marc-Olivier Méhu




SOURCES & CREDITS :

   NOAA